Currently 74°F in Moreno Valley, California, USA
74°F
74°F / 52°F
6 mph S
0.00"
Saturday, September 23, 2017 1:05 PM PDT

Moreno Valley, California Weather Summary
Last 36 Hours

Temperature Winds Hourly Humidity Dewpoint
Time Report Norm Report Norm Max Gusts Precip. Rpt. Norm Rpt. Norm Pressure
1,2Sat 01:05 PM  73.8°F  88°F  6 mph S  5 mph  11 mph  0.00"  49%  27%  53°F  48°F  27.97"
Sat 01:00 PM  73.5°F  88°F  5 mph SW  5 mph  12 mph  0.00"  50%  27%  53°F  49°F  27.97"
Sat 12:00 PM  69.9°F  86°F  2 mph NE  4 mph  9 mph  0.00"  56%  30%  53°F  50°F  27.98"
Sat 11:00 AM  66.9°F  83°F  2 mph SW  3 mph  11 mph  0.00"  62%  36%  53°F  52°F  27.99"
Sat 10:00 AM  63.6°F  79°F  4 mph S  2 mph  8 mph  0.00"  73%  43%  55°F  54°F  28.00"
Sat 09:00 AM  60.7°F  75°F  4 mph SE  1 mph  8 mph  0.00"  81%  50%  54°F  55°F  28.00"
Sat 08:00 AM  57.2°F  71°F  2 mph S  1 mph  5 mph  0.00"  92%  57%  55°F  54°F  27.99"
Sat 07:00 AM  52.6°F  65°F  calm  1 mph  6 mph  0.00"  96%  63%  51°F  52°F  27.98"
Sat 06:00 AM  52.3°F  65°F  3 mph SE  1 mph  6 mph  0.00"  96%  63%  51°F  52°F  27.97"
3Sat 05:46 AM  51.9°F  65°F  calm  1 mph  3 mph  ----  96%  63%  51°F  52°F  27.97"
Sat 05:00 AM  52.8°F  65°F  calm  1 mph  none  0.00"  96%  63%  52°F  52°F  27.96"
Sat 04:00 AM  52.7°F  65°F  calm  calm  none  0.00"  93%  63%  51°F  52°F  27.95"
Sat 03:00 AM  53.5°F  66°F  calm  calm  1 mph  0.00"  90%  63%  51°F  53°F  27.95"
Sat 02:00 AM  54.1°F  66°F  calm  1 mph  none  0.00"  87%  63%  50°F  53°F  27.95"
Sat 01:00 AM  55.0°F  67°F  calm  calm  none  0.00"  84%  61%  50°F  53°F  27.95"
Sat 12:00 AM  58.3°F  68°F  calm  calm  6 mph  0.00"  82%  60%  53°F  53°F  27.96"
Fri 11:00 PM  58.0°F  69°F  1 mph NE  1 mph  8 mph  0.00"  81%  57%  52°F  53°F  27.96"
Fri 10:00 PM  58.7°F  71°F  2 mph W  1 mph  9 mph  0.00"  89%  54%  55°F  53°F  27.96"
Fri 09:00 PM  60.1°F  73°F  5 mph W  2 mph  11 mph  0.00"  84%  50%  55°F  53°F  27.96"
Fri 08:00 PM  61.8°F  76°F  6 mph NW  2 mph  13 mph  0.00"  74%  46%  53°F  53°F  27.95"
Fri 07:00 PM  64.5°F  79°F  6 mph W  4 mph  13 mph  0.00"  68%  42%  53°F  53°F  27.94"
Fri 06:00 PM  69.4°F  84°F  5 mph W  5 mph  15 mph  0.00"  54%  34%  52°F  52°F  27.93"
Fri 05:00 PM  73.4°F  88°F  5 mph SW  6 mph  13 mph  0.00"  44%  29%  50°F  51°F  27.93"
Fri 04:00 PM  74.3°F  90°F  6 mph W  6 mph  13 mph  0.00"  41%  26%  48°F  50°F  27.94"
Fri 03:00 PM  74.7°F  91°F  3 mph NW  6 mph  19 mph  0.00"  41%  24%  49°F  48°F  27.95"
Fri 02:00 PM  72.6°F  90°F  5 mph W  5 mph  11 mph  0.00"  44%  25%  49°F  48°F  27.97"
Fri 01:00 PM  70.4°F  88°F  4 mph SW  5 mph  11 mph  0.00"  50%  27%  50°F  49°F  28.00"
Fri 12:00 PM  68.4°F  86°F  2 mph S  4 mph  9 mph  0.00"  56%  31%  52°F  50°F  28.02"
Fri 11:00 AM  64.1°F  83°F  3 mph SW  3 mph  8 mph  0.00"  69%  36%  53°F  52°F  28.03"
Fri 10:00 AM  61.5°F  79°F  3 mph S  2 mph  9 mph  0.00"  80%  44%  55°F  54°F  28.03"
Fri 09:00 AM  57.4°F  75°F  3 mph SE  1 mph  8 mph  0.00"  89%  51%  54°F  55°F  28.03"
Fri 08:00 AM  53.4°F  71°F  1 mph SE  1 mph  4 mph  0.00"  96%  58%  52°F  55°F  28.02"
Fri 07:00 AM  51.7°F  65°F  calm  1 mph  6 mph  0.00"  96%  65%  50°F  52°F  28.01"
Fri 06:00 AM  52.0°F  65°F  4 mph SE  1 mph  7 mph  0.00"  95%  65%  51°F  52°F  27.99"
Fri 05:00 AM  52.1°F  65°F  3 mph SE  1 mph  6 mph  0.00"  95%  65%  51°F  53°F  27.98"
Fri 04:00 AM  52.3°F  65°F  calm  calm  6 mph  0.00"  95%  65%  51°F  53°F  27.98"
Fri 03:00 AM  53.1°F  66°F  3 mph SE  calm  7 mph  0.00"  92%  65%  51°F  53°F  27.98"
Fri 02:00 AM  54.1°F  66°F  4 mph SE  1 mph  6 mph  0.00"  89%  65%  51°F  54°F  27.98"

  1. Current weather data. No green row appears if the current weather data is also the high or low for the current day.
  2. High temperature for the current day.
  3. Low temperature for the current day.

The Moreno Valley, California weather pages are a service of WeatherCurrents. Moreno Valley is located in Southern California's Inland Empire, east of Riverside and north of Perris, along the State Route 60 freeway.
Copyright ©Sat Sep 23 13:06:23 PDT 2017  WeatherCurrents. All rights reserved. - Submit questions and comments - Privacy Policy

This page automatically refreshes every 10 minutes.